Time;durP1;ratioP1;P1;durP2;ratioP2;P2;SDS_P1;SDS_P2;PMS_P1;PMS_P2;Temp;Humidity;BMP_temperature;BMP_pressure;BME280_temperature;BME280_humidity;BME280_pressure;Samples;Min_cycle;Max_cycle;Signal;HPM_P1;HPM_P2
2021/10/18 00:00:14;;;;;;;17.48;12.35;;;12.00;92.80;;;;;;5027090;28;20048;-60
2021/10/18 00:02:39;;;;;;;21.40;12.65;;;12.00;92.80;;;;;;5025759;28;20189;-60
2021/10/18 00:05:05;;;;;;;18.85;12.07;;;12.00;92.80;;;;;;5035409;28;20084;-60
2021/10/18 00:07:31;;;;;;;18.65;11.15;;;12.00;92.80;;;;;;5026705;28;20029;-60
2021/10/18 00:09:56;;;;;;;22.85;12.82;;;12.00;92.80;;;;;;5032785;28;20111;-60
2021/10/18 00:12:22;;;;;;;18.27;14.15;;;12.00;92.80;;;;;;5018102;28;20083;-60
2021/10/18 00:14:47;;;;;;;23.40;13.77;;;12.00;92.70;;;;;;5030529;28;20014;-60
2021/10/18 00:17:13;;;;;;;18.95;13.48;;;12.00;92.80;;;;;;5029943;28;20480;-60
2021/10/18 00:19:38;;;;;;;19.00;12.88;;;11.90;92.80;;;;;;5025599;28;20037;-60
2021/10/18 00:22:04;;;;;;;24.10;12.35;;;11.90;92.90;;;;;;5029011;28;20038;-59
2021/10/18 00:24:29;;;;;;;16.02;12.45;;;11.90;92.90;;;;;;5029533;28;20108;-59
2021/10/18 00:26:55;;;;;;;17.35;11.90;;;11.80;92.90;;;;;;5025123;28;20392;-59
2021/10/18 00:29:21;;;;;;;19.60;13.50;;;11.90;92.90;;;;;;5029265;28;20021;-60
2021/10/18 00:31:46;;;;;;;22.92;13.48;;;11.90;92.90;;;;;;5024291;28;20678;-60
2021/10/18 00:34:12;;;;;;;25.70;17.08;;;11.80;93.00;;;;;;5027588;28;20056;-61
2021/10/18 00:36:37;;;;;;;27.40;20.27;;;11.80;93.00;;;;;;5020480;28;20068;-61
2021/10/18 00:39:03;;;;;;;24.85;19.80;;;11.80;93.00;;;;;;5028151;28;20028;-60
2021/10/18 00:41:28;;;;;;;27.23;18.52;;;11.80;93.00;;;;;;5031040;28;20055;-60
2021/10/18 00:43:55;;;;;;;20.00;15.52;;;11.80;93.00;;;;;;5011098;28;20420;-60
2021/10/18 00:46:22;;;;;;;22.42;14.18;;;11.80;93.00;;;;;;5028785;28;20116;-60
2021/10/18 00:48:48;;;;;;;19.27;13.95;;;11.80;93.00;;;;;;5030049;28;20040;-60
2021/10/18 00:51:15;;;;;;;19.45;13.95;;;11.80;93.00;;;;;;5029172;28;20025;-60
2021/10/18 00:53:41;;;;;;;16.52;13.45;;;11.80;93.00;;;;;;5028821;28;20022;-60
2021/10/18 00:56:06;;;;;;;19.63;13.63;;;11.80;93.00;;;;;;5011815;28;20504;-60
2021/10/18 00:58:31;;;;;;;17.80;13.20;;;11.70;93.00;;;;;;5024768;28;20109;-60
2021/10/18 01:00:57;;;;;;;20.25;12.95;;;11.80;93.00;;;;;;5024166;28;20041;-60
2021/10/18 01:03:23;;;;;;;17.52;13.40;;;11.80;92.90;;;;;;5013896;28;20366;-60
2021/10/18 01:05:49;;;;;;;18.42;13.38;;;11.70;92.90;;;;;;5013368;28;20045;-59
2021/10/18 01:08:14;;;;;;;15.43;12.20;;;11.70;92.90;;;;;;5025762;28;20493;-60
2021/10/18 01:10:40;;;;;;;18.30;13.38;;;11.70;92.90;;;;;;5015852;28;20033;-60
2021/10/18 01:13:05;;;;;;;16.70;12.98;;;11.70;92.80;;;;;;5025571;28;20033;-60
2021/10/18 01:15:31;;;;;;;17.50;12.93;;;11.70;92.80;;;;;;5028022;28;20104;-60
2021/10/18 01:17:56;;;;;;;13.75;11.88;;;11.70;92.80;;;;;;5017185;28;20088;-59
2021/10/18 01:20:32;;;;;;;17.13;12.43;;;11.70;92.80;;;;;;5025902;28;20037;-60
2021/10/18 01:22:58;;;;;;;;;;;11.40;92.80;;;;;;5030493;28;20032;-59
2021/10/18 01:25:23;;;;;;;18.90;13.80;;;11.70;92.80;;;;;;5027663;28;20288;-60
2021/10/18 01:27:49;;;;;;;15.63;13.02;;;11.70;92.80;;;;;;5026928;28;20120;-60
2021/10/18 01:30:14;;;;;;;17.65;12.88;;;11.70;92.80;;;;;;5021448;28;20045;-60
2021/10/18 01:32:40;;;;;;;17.85;13.32;;;11.70;92.80;;;;;;5021741;28;20034;-60
2021/10/18 01:35:07;;;;;;;19.00;13.18;;;11.60;92.80;;;;;;5027689;28;20057;-60
2021/10/18 01:37:33;;;;;;;17.77;13.90;;;11.60;92.80;;;;;;5027628;28;20029;-60
2021/10/18 01:39:58;;;;;;;16.88;12.35;;;11.60;92.90;;;;;;5027750;28;20040;-60
2021/10/18 01:42:24;;;;;;;16.38;12.85;;;11.60;92.90;;;;;;5031159;28;20405;-60
2021/10/18 01:44:49;;;;;;;16.33;12.32;;;11.60;92.90;;;;;;5027716;28;20547;-60
2021/10/18 01:47:15;;;;;;;15.32;12.23;;;11.60;92.90;;;;;;5025302;28;20065;-60
2021/10/18 01:49:40;;;;;;;13.88;12.00;;;11.50;92.90;;;;;;5028158;28;20104;-60
2021/10/18 01:52:07;;;;;;;15.85;12.20;;;11.50;92.90;;;;;;5024892;28;20048;-60
2021/10/18 01:54:32;;;;;;;13.95;11.95;;;11.50;92.90;;;;;;5027627;28;20392;-60
2021/10/18 01:56:58;;;;;;;13.85;11.98;;;11.50;92.90;;;;;;5026134;28;20037;-60
2021/10/18 01:59:23;;;;;;;19.77;11.60;;;11.50;92.90;;;;;;5020404;28;20029;-60
2021/10/18 02:01:49;;;;;;;13.52;11.60;;;11.50;92.90;;;;;;5028486;28;20022;-60
2021/10/18 02:04:14;;;;;;;12.80;11.00;;;11.50;92.90;;;;;;5008814;28;20083;-60
2021/10/18 02:06:40;;;;;;;12.10;10.85;;;11.50;92.80;;;;;;5028298;28;20065;-60
2021/10/18 02:09:05;;;;;;;13.27;11.00;;;11.50;92.90;;;;;;5028984;28;20065;-60
2021/10/18 02:11:31;;;;;;;13.82;11.15;;;11.40;92.90;;;;;;5023671;28;20045;-60
2021/10/18 02:13:56;;;;;;;13.57;11.85;;;11.40;92.80;;;;;;5027816;28;20080;-60
2021/10/18 02:16:22;;;;;;;14.05;11.13;;;11.40;92.80;;;;;;5028063;28;20465;-60
2021/10/18 02:18:48;;;;;;;14.80;11.27;;;11.40;92.80;;;;;;5025364;28;20516;-60
2021/10/18 02:21:13;;;;;;;16.52;12.30;;;11.40;92.80;;;;;;5025520;28;20120;-60
2021/10/18 02:23:39;;;;;;;13.25;11.57;;;11.40;92.80;;;;;;5024674;28;20026;-60
2021/10/18 02:26:04;;;;;;;13.75;11.23;;;11.40;92.90;;;;;;5027591;28;20029;-60
2021/10/18 02:28:30;;;;;;;12.48;10.20;;;11.40;92.90;;;;;;5024341;28;20034;-60
2021/10/18 02:30:55;;;;;;;12.05;10.80;;;11.40;92.90;;;;;;5024811;28;20087;-60
2021/10/18 02:33:21;;;;;;;14.95;11.48;;;11.40;92.90;;;;;;5025794;28;20107;-60
2021/10/18 02:35:46;;;;;;;16.50;11.23;;;11.30;92.90;;;;;;5029315;28;20060;-59
2021/10/18 02:38:12;;;;;;;13.02;10.38;;;11.40;93.20;;;;;;5025544;28;20521;-60
2021/10/18 02:40:38;;;;;;;18.10;12.30;;;11.40;92.90;;;;;;5024831;28;20503;-62
2021/10/18 02:43:03;;;;;;;14.88;11.63;;;11.30;92.90;;;;;;5025911;28;20041;-62
2021/10/18 02:45:29;;;;;;;17.50;11.57;;;11.30;93.00;;;;;;5026031;28;20304;-63
2021/10/18 02:47:54;;;;;;;14.35;11.18;;;11.30;93.00;;;;;;5034058;28;20040;-62
2021/10/18 02:50:20;;;;;;;13.98;11.27;;;11.30;93.00;;;;;;5027711;28;20029;-63
2021/10/18 02:52:45;;;;;;;15.05;10.52;;;11.30;93.00;;;;;;5029655;28;20072;-63
2021/10/18 02:55:11;;;;;;;15.88;10.77;;;11.30;93.00;;;;;;5030661;28;20242;-62
2021/10/18 02:57:36;;;;;;;16.58;10.68;;;11.30;93.10;;;;;;5023599;28;20041;-62
2021/10/18 03:00:03;;;;;;;13.82;11.77;;;11.30;93.10;;;;;;5020242;28;20506;-63
2021/10/18 03:02:28;;;;;;;13.57;10.88;;;11.00;92.90;;;;;;5029834;28;20037;-63
2021/10/18 03:04:54;;;;;;;18.02;11.23;;;11.30;93.00;;;;;;5030079;28;20444;-62
2021/10/18 03:07:21;;;;;;;15.68;10.68;;;11.30;93.00;;;;;;5026296;28;20033;-62
2021/10/18 03:09:47;;;;;;;15.88;12.02;;;11.30;93.10;;;;;;5025039;28;20041;-63
2021/10/18 03:12:12;;;;;;;16.08;11.52;;;11.20;93.10;;;;;;5027167;28;20044;-63
2021/10/18 03:14:38;;;;;;;16.30;12.52;;;11.20;93.10;;;;;;5027522;28;20047;-62
2021/10/18 03:17:03;;;;;;;17.33;13.18;;;11.20;93.20;;;;;;5027375;28;20031;-62
2021/10/18 03:19:29;;;;;;;15.98;12.75;;;11.20;93.20;;;;;;5024726;28;20049;-63
2021/10/18 03:21:54;;;;;;;14.75;12.10;;;11.20;93.30;;;;;;5025132;28;20067;-62
2021/10/18 03:24:20;;;;;;;16.10;13.30;;;11.20;93.20;;;;;;5022026;28;20125;-63
2021/10/18 03:26:45;;;;;;;14.98;11.77;;;11.20;93.20;;;;;;5027866;28;20134;-62
2021/10/18 03:29:11;;;;;;;15.35;12.32;;;11.20;93.30;;;;;;5024364;28;20175;-62
2021/10/18 03:31:36;;;;;;;16.05;11.85;;;11.10;93.20;;;;;;5028901;28;20088;-62
2021/10/18 03:34:02;;;;;;;12.57;10.95;;;11.10;93.20;;;;;;5028012;28;20629;-62
2021/10/18 03:36:27;;;;;;;15.75;11.98;;;11.10;93.20;;;;;;5025345;28;20496;-63
2021/10/18 03:38:53;;;;;;;13.05;10.98;;;11.10;93.20;;;;;;5027425;28;20103;-62
2021/10/18 03:41:18;;;;;;;15.48;11.40;;;11.10;93.30;;;;;;5027926;28;20148;-63
2021/10/18 03:43:44;;;;;;;15.10;11.93;;;11.10;93.30;;;;;;5025720;28;20057;-62
2021/10/18 03:46:09;;;;;;;13.55;12.13;;;11.10;93.30;;;;;;5026494;28;20049;-62
2021/10/18 03:48:35;;;;;;;15.57;11.40;;;11.10;93.30;;;;;;5027048;28;20505;-62
2021/10/18 03:51:00;;;;;;;14.00;11.57;;;11.10;93.40;;;;;;5027902;28;20045;-62
2021/10/18 03:53:26;;;;;;;13.13;11.75;;;11.00;93.30;;;;;;5026521;28;20034;-62
2021/10/18 03:55:52;;;;;;;13.65;11.20;;;11.10;93.40;;;;;;5029297;28;20025;-62
2021/10/18 03:58:17;;;;;;;14.05;11.50;;;11.00;93.40;;;;;;5029763;28;20033;-62
2021/10/18 04:00:43;;;;;;;11.88;10.57;;;11.00;93.40;;;;;;5032004;28;20179;-62
2021/10/18 04:03:08;;;;;;;12.88;11.52;;;11.00;93.40;;;;;;5032364;28;20541;-63
2021/10/18 04:05:34;;;;;;;13.27;11.65;;;11.00;93.40;;;;;;5028430;28;20056;-63
2021/10/18 04:07:59;;;;;;;12.73;11.07;;;11.00;93.50;;;;;;5029803;28;20512;-62
2021/10/18 04:10:25;;;;;;;15.35;11.85;;;11.00;93.50;;;;;;5027435;28;20548;-62
2021/10/18 04:12:50;;;;;;;16.55;11.20;;;11.00;93.50;;;;;;5040185;28;20318;-63
2021/10/18 04:15:16;;;;;;;15.32;11.65;;;11.00;93.50;;;;;;5028264;28;20026;-63
2021/10/18 04:17:42;;;;;;;17.27;11.90;;;11.00;93.50;;;;;;5025246;28;20069;-62
2021/10/18 04:20:07;;;;;;;12.93;10.57;;;11.00;93.60;;;;;;5026666;28;20022;-62
2021/10/18 04:22:33;;;;;;;15.07;11.95;;;10.90;93.60;;;;;;5033021;28;20036;-63
2021/10/18 04:24:58;;;;;;;13.75;11.80;;;10.90;93.70;;;;;;5027981;28;20468;-62
2021/10/18 04:27:24;;;;;;;25.02;12.65;;;10.90;93.70;;;;;;5017261;28;20044;-63
2021/10/18 04:29:50;;;;;;;55.25;15.57;;;10.90;93.70;;;;;;5027097;28;20388;-63
2021/10/18 04:32:15;;;;;;;39.45;13.75;;;10.90;93.70;;;;;;5023635;28;20515;-62
2021/10/18 04:34:41;;;;;;;23.42;13.75;;;10.90;93.80;;;;;;5022651;28;20033;-62
2021/10/18 04:37:06;;;;;;;26.30;12.80;;;10.90;93.70;;;;;;5028561;28;20033;-62
2021/10/18 04:39:32;;;;;;;37.80;12.85;;;10.90;93.70;;;;;;5028373;28;20120;-62
2021/10/18 04:41:58;;;;;;;39.65;13.27;;;10.90;93.80;;;;;;5028235;28;20124;-61
2021/10/18 04:44:23;;;;;;;28.20;13.60;;;10.90;93.80;;;;;;5030190;28;20036;-63
2021/10/18 04:46:49;;;;;;;25.85;13.00;;;10.90;93.90;;;;;;5028228;28;20296;-61
2021/10/18 04:49:14;;;;;;;33.55;13.35;;;10.90;93.90;;;;;;5036693;28;20307;-62
2021/10/18 04:51:40;;;;;;;21.40;14.35;;;10.90;93.90;;;;;;5029819;28;20392;-62
2021/10/18 04:54:05;;;;;;;23.05;12.85;;;10.90;94.00;;;;;;5024541;28;20415;-62
2021/10/18 04:56:31;;;;;;;27.90;13.82;;;10.90;94.10;;;;;;5028869;28;20825;-62
2021/10/18 04:58:56;;;;;;;24.95;14.18;;;10.90;94.10;;;;;;5026143;28;20034;-62
2021/10/18 05:01:22;;;;;;;22.60;13.82;;;10.90;94.20;;;;;;5030804;28;20501;-63
2021/10/18 05:03:47;;;;;;;31.40;13.90;;;10.90;94.20;;;;;;5007522;28;20542;-62
2021/10/18 05:06:13;;;;;;;23.92;13.43;;;10.90;94.20;;;;;;5022746;28;20037;-63
2021/10/18 05:08:38;;;;;;;24.25;13.05;;;10.90;94.20;;;;;;5034418;28;20397;-62
2021/10/18 05:11:04;;;;;;;29.13;13.95;;;10.90;94.20;;;;;;5033844;28;20476;-62
2021/10/18 05:13:29;;;;;;;27.73;13.52;;;10.90;94.30;;;;;;5026024;28;20022;-60
2021/10/18 05:15:55;;;;;;;22.65;13.25;;;10.90;94.30;;;;;;5026901;28;20022;-60
2021/10/18 05:18:20;;;;;;;22.55;12.95;;;10.90;94.40;;;;;;5031331;28;20098;-60
2021/10/18 05:20:46;;;;;;;22.02;13.18;;;10.90;94.40;;;;;;5034208;28;20036;-60
2021/10/18 05:23:12;;;;;;;23.90;13.10;;;10.90;94.50;;;;;;5028460;28;20489;-60
2021/10/18 05:25:38;;;;;;;18.95;12.88;;;10.90;94.50;;;;;;5027106;28;20088;-59
2021/10/18 05:28:04;;;;;;;22.35;12.77;;;10.90;94.50;;;;;;5016006;28;20021;-60
2021/10/18 05:30:29;;;;;;;20.67;13.15;;;10.90;94.50;;;;;;5030549;28;20057;-60
2021/10/18 05:32:56;;;;;;;20.45;13.10;;;10.90;94.50;;;;;;5034950;28;20052;-59
2021/10/18 05:35:22;;;;;;;21.85;14.02;;;10.90;94.60;;;;;;5031928;28;20081;-59
2021/10/18 05:37:47;;;;;;;25.80;13.27;;;10.90;94.60;;;;;;5027960;28;20063;-59
2021/10/18 05:40:13;;;;;;;17.63;12.48;;;10.90;94.60;;;;;;5031494;28;20041;-60
2021/10/18 05:42:39;;;;;;;21.05;13.63;;;10.90;94.60;;;;;;5014838;28;20094;-60
2021/10/18 05:45:05;;;;;;;24.35;13.05;;;10.90;94.60;;;;;;5030280;28;20034;-60
2021/10/18 05:47:31;;;;;;;23.80;12.70;;;10.90;94.60;;;;;;5024317;28;20373;-59
2021/10/18 05:49:58;;;;;;;20.20;13.18;;;10.90;94.60;;;;;;5023106;28;20069;-60
2021/10/18 05:52:24;;;;;;;20.77;12.63;;;10.90;94.60;;;;;;5030072;28;20024;-60
2021/10/18 05:54:49;;;;;;;23.90;13.15;;;10.90;94.60;;;;;;5026663;28;20173;-60
2021/10/18 05:57:15;;;;;;;20.83;12.57;;;10.70;94.60;;;;;;5034130;28;20029;-60
2021/10/18 05:59:40;;;;;;;18.98;12.20;;;10.90;94.60;;;;;;5025024;28;20635;-60
2021/10/18 06:02:06;;;;;;;22.25;12.93;;;10.90;94.70;;;;;;5033676;28;20041;-60
2021/10/18 06:04:34;;;;;;;21.55;12.45;;;10.90;94.60;;;;;;5025119;28;20116;-60
2021/10/18 06:07:00;;;;;;;16.80;12.65;;;10.90;94.60;;;;;;5031250;28;20083;-60
2021/10/18 06:09:25;;;;;;;16.92;12.93;;;10.90;94.60;;;;;;5037434;28;20465;-60
2021/10/18 06:11:51;;;;;;;18.35;11.85;;;10.90;94.60;;;;;;5034898;28;20026;-60
2021/10/18 06:14:16;;;;;;;16.75;12.23;;;10.90;94.60;;;;;;5015050;28;20041;-63
2021/10/18 06:16:42;;;;;;;29.65;12.50;;;10.90;94.50;;;;;;5028708;28;20053;-62
2021/10/18 06:19:07;;;;;;;20.73;12.77;;;10.90;94.50;;;;;;5011898;28;20037;-62
2021/10/18 06:21:33;;;;;;;15.63;11.52;;;10.90;94.50;;;;;;5025895;28;20044;-62
2021/10/18 06:23:58;;;;;;;16.70;11.70;;;10.90;94.50;;;;;;5028030;28;20017;-62
2021/10/18 06:26:24;;;;;;;16.77;12.35;;;10.90;94.50;;;;;;5027094;28;20543;-63
2021/10/18 06:28:49;;;;;;;17.45;12.68;;;10.90;94.50;;;;;;5025662;28;20116;-60
2021/10/18 06:31:15;;;;;;;21.42;11.77;;;10.90;94.60;;;;;;5032727;28;20983;-60
2021/10/18 06:33:40;;;;;;;29.92;13.88;;;10.90;94.60;;;;;;5038177;28;20065;-60
2021/10/18 06:36:06;;;;;;;20.35;12.27;;;10.90;94.60;;;;;;5026647;28;20048;-60
2021/10/18 06:38:31;;;;;;;23.48;13.00;;;10.90;94.70;;;;;;5028250;28;20061;-61
2021/10/18 06:40:57;;;;;;;30.63;13.77;;;10.90;94.70;;;;;;5029386;28;20095;-60
2021/10/18 06:43:23;;;;;;;142.25;22.83;;;10.90;94.70;;;;;;5010032;28;20495;-60
2021/10/18 06:45:48;;;;;;;43.97;14.45;;;11.00;94.80;;;;;;5032027;28;20506;-60
2021/10/18 06:48:15;;;;;;;28.50;12.75;;;11.00;94.70;;;;;;5039762;28;20021;-61
2021/10/18 06:50:41;;;;;;;24.80;13.00;;;11.00;94.80;;;;;;5026751;28;20025;-60
2021/10/18 06:53:11;;;;;;;30.13;13.43;;;11.00;94.80;;;;;;5025282;28;20370;-62
2021/10/18 06:55:37;;;;;;;25.58;12.60;;;11.00;94.80;;;;;;5006388;28;20059;-62
2021/10/18 06:58:03;;;;;;;21.70;13.38;;;11.00;94.70;;;;;;5026791;28;20032;-62
2021/10/18 07:00:28;;;;;;;21.45;11.90;;;11.00;94.60;;;;;;5012926;28;20033;-60
2021/10/18 07:02:54;;;;;;;23.67;12.07;;;11.00;94.60;;;;;;5024434;28;20062;-60
2021/10/18 07:05:19;;;;;;;21.98;12.18;;;11.00;94.60;;;;;;5017663;28;20025;-61
2021/10/18 07:07:45;;;;;;;23.45;12.52;;;11.00;94.50;;;;;;5029353;28;20501;-61
2021/10/18 07:10:10;;;;;;;19.92;11.95;;;11.00;94.50;;;;;;5029074;28;20038;-62
2021/10/18 07:12:36;;;;;;;27.35;12.85;;;11.00;94.50;;;;;;5032586;28;20076;-62
2021/10/18 07:15:02;;;;;;;22.38;12.45;;;11.00;94.50;;;;;;5028863;28;20030;-62
2021/10/18 07:17:27;;;;;;;22.90;12.80;;;11.00;94.80;;;;;;5040487;28;20037;-62
2021/10/18 07:19:57;;;;;;;22.40;12.98;;;11.00;94.60;;;;;;5038680;28;20618;-62
2021/10/18 07:22:29;;;;;;;18.63;12.30;;;11.00;94.70;;;;;;5033481;28;20733;-63
2021/10/18 07:24:55;;;;;;;28.25;12.50;;;11.00;94.70;;;;;;5045274;28;20026;-60
2021/10/18 07:27:21;;;;;;;19.77;13.02;;;11.00;94.60;;;;;;5032333;28;20033;-60
2021/10/18 07:29:47;;;;;;;19.92;12.25;;;11.00;94.70;;;;;;5030465;28;20377;-63
2021/10/18 07:32:12;;;;;;;24.50;12.70;;;11.00;94.70;;;;;;5036830;28;20055;-60
2021/10/18 07:34:38;;;;;;;23.60;13.10;;;11.00;94.70;;;;;;5037258;28;20604;-62
2021/10/18 07:37:04;;;;;;;29.90;12.82;;;11.00;94.70;;;;;;5034582;28;20511;-62
2021/10/18 07:39:30;;;;;;;23.70;12.75;;;11.00;94.70;;;;;;5035245;28;20068;-62
2021/10/18 07:41:56;;;;;;;17.20;11.57;;;11.00;94.70;;;;;;5036499;28;20088;-62
2021/10/18 07:44:24;;;;;;;26.48;12.75;;;11.00;94.70;;;;;;5035334;28;20037;-62
2021/10/18 07:46:55;;;;;;;22.45;11.85;;;11.00;94.60;;;;;;5030666;28;20041;-62
2021/10/18 07:49:21;;;;;;;26.60;12.88;;;11.00;94.70;;;;;;5037789;28;20024;-60
2021/10/18 07:51:47;;;;;;;22.70;13.18;;;11.00;94.70;;;;;;5027589;28;20029;-61
2021/10/18 07:54:12;;;;;;;30.48;12.75;;;11.00;94.70;;;;;;5025767;28;20028;-61
2021/10/18 07:56:38;;;;;;;21.88;12.48;;;11.00;94.70;;;;;;5028632;28;20544;-61
2021/10/18 07:59:03;;;;;;;27.98;12.95;;;11.00;94.70;;;;;;5030564;28;20045;-60
2021/10/18 08:01:29;;;;;;;31.45;13.27;;;11.00;94.70;;;;;;5026351;28;20044;-60
2021/10/18 08:03:54;;;;;;;25.58;13.40;;;11.00;94.70;;;;;;5029928;28;20029;-60
2021/10/18 08:06:20;;;;;;;28.33;13.25;;;11.00;94.70;;;;;;5021420;28;20091;-62
2021/10/18 08:08:49;;;;;;;30.38;12.55;;;11.10;94.80;;;;;;5016169;28;20091;-62
2021/10/18 08:11:15;;;;;;;27.42;12.52;;;11.10;94.80;;;;;;5035881;28;20041;-63
2021/10/18 08:13:41;;;;;;;31.52;13.07;;;11.10;94.70;;;;;;5040280;28;20025;-62
2021/10/18 08:16:06;;;;;;;38.90;13.18;;;11.10;94.70;;;;;;5032528;28;20179;-62
2021/10/18 08:18:32;;;;;;;39.42;13.38;;;11.10;94.70;;;;;;5035900;28;20041;-62
2021/10/18 08:20:57;;;;;;;31.20;12.95;;;11.10;94.70;;;;;;5032144;28;20048;-62
2021/10/18 08:23:23;;;;;;;28.90;13.65;;;11.10;94.70;;;;;;5022723;28;20040;-62
2021/10/18 08:25:48;;;;;;;32.00;13.40;;;11.10;94.60;;;;;;5034049;28;20046;-62
2021/10/18 08:28:14;;;;;;;38.30;13.75;;;11.20;94.60;;;;;;5029145;28;20032;-62
2021/10/18 08:30:39;;;;;;;40.08;14.32;;;11.20;94.70;;;;;;5034122;28;20048;-62
2021/10/18 08:33:05;;;;;;;222.90;30.27;;;11.20;94.80;;;;;;5029460;28;20440;-61
2021/10/18 08:35:32;;;;;;;56.72;16.02;;;11.20;94.90;;;;;;5028894;28;20029;-60
2021/10/18 08:45:51;;;;;;;37.90;15.88;;;11.20;94.80;;;;;;5034634;28;20029;-60
2021/10/18 08:48:16;;;;;;;53.42;15.52;;;11.20;94.90;;;;;;5028473;28;20036;-60
2021/10/18 08:50:42;;;;;;;42.38;15.98;;;11.30;95.00;;;;;;5030056;28;20041;-60
2021/10/18 08:53:07;;;;;;;41.15;15.07;;;11.30;95.00;;;;;;5027343;28;20033;-60
2021/10/18 08:55:37;;;;;;;39.13;15.20;;;11.30;94.80;;;;;;5026861;28;20036;-60
2021/10/18 08:58:03;;;;;;;46.47;14.50;;;11.30;94.80;;;;;;5026340;28;20473;-60
2021/10/18 09:00:54;;;;;;;66.38;16.00;;;11.40;94.80;;;;;;5020870;28;20492;-60
2021/10/18 09:03:23;;;;;;;61.45;15.65;;;11.30;94.70;;;;;;5029997;28;20480;-62
2021/10/18 09:05:49;;;;;;;45.22;14.13;;;11.40;94.70;;;;;;5027672;28;20041;-61
2021/10/18 09:08:49;;;;;;;31.55;14.77;;;11.40;94.70;;;;;;5022393;28;20095;-60
2021/10/18 09:11:22;;;;;;;49.88;15.07;;;11.40;94.60;;;;;;5015529;28;20116;-60
2021/10/18 09:13:51;;;;;;;30.10;14.68;;;11.40;94.60;;;;;;5028346;28;20029;-60
2021/10/18 09:16:29;;;;;;;31.88;14.13;;;11.50;94.60;;;;;;5023733;28;20033;-60
2021/10/18 09:19:11;;;;;;;131.63;20.70;;;11.50;94.50;;;;;;5026042;28;20030;-60
2021/10/18 09:21:47;;;;;;;66.47;17.33;;;11.50;94.50;;;;;;5028826;28;20116;-60
2021/10/18 09:24:14;;;;;;;48.53;14.63;;;11.50;94.40;;;;;;5029138;28;20164;-60
2021/10/18 09:26:40;;;;;;;34.80;13.80;;;11.50;94.30;;;;;;5029450;28;20041;-60
2021/10/18 09:29:10;;;;;;;50.33;15.68;;;11.60;94.30;;;;;;5026899;28;20032;-60
2021/10/18 09:31:36;;;;;;;34.17;14.68;;;11.60;94.20;;;;;;5028140;28;20070;-61
2021/10/18 09:34:12;;;;;;;43.17;14.75;;;11.60;94.20;;;;;;5028383;28;20125;-61
2021/10/18 09:36:38;;;;;;;47.28;14.00;;;11.60;94.20;;;;;;5032278;28;20029;-60
2021/10/18 09:39:14;;;;;;;31.52;13.55;;;11.70;94.10;;;;;;5030967;28;20171;-62
2021/10/18 09:42:03;;;;;;;44.97;16.25;;;11.70;94.10;;;;;;5026403;28;20041;-60
2021/10/18 10:52:45;;;;;;;86.40;19.10;;;11.90;94.40;;;;;;5016977;28;20036;-61
2021/10/18 10:55:30;;;;;;;70.72;16.23;;;11.90;94.40;;;;;;5037711;28;20022;-61
2021/10/18 10:57:57;;;;;;;55.80;14.88;;;12.00;94.40;;;;;;5027667;28;20128;-61
2021/10/18 11:00:30;;;;;;;67.57;15.63;;;12.00;94.50;;;;;;5002883;28;20486;-61
2021/10/18 11:03:20;;;;;;;57.90;15.85;;;12.00;94.60;;;;;;5016327;28;20037;-61
2021/10/18 11:05:59;;;;;;;56.72;15.77;;;12.00;94.40;;;;;;5023642;28;20125;-60
2021/10/18 11:08:38;;;;;;;85.32;16.80;;;12.10;94.30;;;;;;5023639;28;20041;-61
2021/10/18 11:11:20;;;;;;;69.05;15.25;;;12.10;94.30;;;;;;5024297;28;20025;-61
2021/10/18 11:13:50;;;;;;;71.72;15.63;;;12.10;94.30;;;;;;5025437;28;20030;-61
2021/10/18 11:16:18;;;;;;;65.90;15.38;;;12.10;94.20;;;;;;5025727;28;20114;-60
2021/10/18 11:18:46;;;;;;;69.88;16.60;;;12.20;94.20;;;;;;5005635;28;20111;-61
2021/10/18 11:21:16;;;;;;;49.60;14.32;;;12.20;94.30;;;;;;5012217;28;20021;-61
2021/10/18 11:24:08;;;;;;;65.97;15.95;;;12.20;94.20;;;;;;5018767;28;20030;-61
2021/10/18 11:26:37;;;;;;;69.15;15.82;;;12.20;94.30;;;;;;5024118;28;20037;-62
2021/10/18 11:29:04;;;;;;;68.95;16.42;;;12.20;94.10;;;;;;5014733;28;20032;-61
2021/10/18 11:31:36;;;;;;;68.63;16.40;;;12.30;94.30;;;;;;5023362;28;20030;-61
2021/10/18 11:34:13;;;;;;;44.03;13.82;;;12.30;94.70;;;;;;5029227;28;20053;-61
2021/10/18 11:36:40;;;;;;;56.20;14.15;;;12.30;94.10;;;;;;5022966;28;20025;-60
2021/10/18 11:39:11;;;;;;;67.55;15.38;;;12.40;94.10;;;;;;5021112;28;20092;-61
2021/10/18 11:41:59;;;;;;;53.72;12.63;;;12.40;94.30;;;;;;5021741;28;20104;-61
2021/10/18 11:44:56;;;;;;;61.50;14.05;;;12.40;94.10;;;;;;5019861;28;20125;-63
2021/10/18 11:47:30;;;;;;;65.22;12.70;;;12.40;94.00;;;;;;5019406;28;20123;-61
2021/10/18 11:50:22;;;;;;;47.78;12.50;;;12.40;94.10;;;;;;5016934;28;20539;-61
2021/10/18 11:53:01;;;;;;;45.67;13.15;;;12.50;94.10;;;;;;5019748;28;20049;-61
2021/10/18 11:55:27;;;;;;;44.10;12.25;;;12.50;94.10;;;;;;5008245;28;20470;-61
2021/10/18 11:57:53;;;;;;;53.40;13.27;;;12.50;94.00;;;;;;5024442;28;20061;-61
2021/10/18 12:00:26;;;;;;;63.08;14.63;;;12.60;94.00;;;;;;5018486;28;20053;-60
2021/10/18 12:02:52;;;;;;;40.17;12.95;;;12.60;94.20;;;;;;5017453;28;20017;-61
2021/10/18 12:05:18;;;;;;;46.08;12.38;;;12.60;94.10;;;;;;5010737;28;20034;-60
2021/10/18 12:07:45;;;;;;;35.00;12.35;;;12.60;94.10;;;;;;5025463;28;20032;-61
2021/10/18 12:10:15;;;;;;;41.45;13.13;;;12.60;94.00;;;;;;5022560;28;20293;-61
2021/10/18 12:13:02;;;;;;;48.85;12.75;;;12.70;94.00;;;;;;5016993;28;20373;-61
2021/10/18 12:15:27;;;;;;;41.97;11.77;;;12.50;94.00;;;;;;5018827;28;20034;-60
2021/10/18 12:17:53;;;;;;;36.38;12.10;;;12.70;94.10;;;;;;5004263;28;20040;-61
2021/10/18 12:20:18;;;;;;;35.85;11.27;;;12.80;94.00;;;;;;5014104;28;20045;-61
2021/10/18 12:23:00;;;;;;;44.72;12.60;;;12.80;94.00;;;;;;5003530;28;20029;-61
2021/10/18 12:25:26;;;;;;;35.80;11.32;;;12.80;93.90;;;;;;5005443;28;20033;-60
2021/10/18 12:27:53;;;;;;;29.23;11.18;;;12.80;93.80;;;;;;5024141;28;20393;-61
2021/10/18 12:30:40;;;;;;;26.90;10.70;;;12.90;93.80;;;;;;5025258;28;20025;-60
2021/10/18 12:33:13;;;;;;;47.60;12.63;;;12.90;93.80;;;;;;5020488;28;20143;-60
2021/10/18 12:35:38;;;;;;;27.45;11.23;;;12.90;93.70;;;;;;5019649;28;20037;-61
2021/10/18 12:38:09;;;;;;;29.58;11.45;;;13.00;93.70;;;;;;5006984;28;20022;-61
2021/10/18 12:40:34;;;;;;;29.60;9.88;;;13.00;93.60;;;;;;5022922;28;20529;-61
2021/10/18 12:43:02;;;;;;;35.42;10.60;;;13.00;93.60;;;;;;5024668;28;20098;-61
2021/10/18 12:45:34;;;;;;;28.73;10.48;;;13.10;93.60;;;;;;5004790;28;20057;-60
2021/10/18 12:48:00;;;;;;;19.45;8.88;;;13.10;93.60;;;;;;5022006;28;20531;-61
2021/10/18 12:50:28;;;;;;;25.98;9.65;;;13.10;93.60;;;;;;5025415;28;20061;-61
2021/10/18 12:52:55;;;;;;;23.25;10.15;;;13.20;93.60;;;;;;5022946;28;20507;-60
2021/10/18 12:55:23;;;;;;;22.95;10.82;;;13.20;93.50;;;;;;5024923;28;20108;-61
2021/10/18 12:57:52;;;;;;;27.83;10.20;;;13.30;93.50;;;;;;5020278;28;20244;-61
2021/10/18 13:00:20;;;;;;;29.23;8.88;;;13.30;93.40;;;;;;5020715;28;20069;-61
2021/10/18 13:02:46;;;;;;;37.70;11.10;;;13.30;93.30;;;;;;5005826;28;20104;-61
2021/10/18 13:05:16;;;;;;;28.75;9.73;;;13.30;93.30;;;;;;5024178;28;20100;-61
2021/10/18 13:07:56;;;;;;;29.58;9.55;;;13.40;93.30;;;;;;5023240;28;20088;-61
2021/10/18 13:10:24;;;;;;;26.33;9.73;;;13.40;93.20;;;;;;5024032;28;20072;-61
2021/10/18 13:12:49;;;;;;;29.40;10.00;;;13.50;93.20;;;;;;5007152;28;20124;-61
2021/10/18 13:15:16;;;;;;;38.92;9.82;;;13.50;93.30;;;;;;5021469;28;20520;-61
2021/10/18 13:17:42;;;;;;;32.65;10.60;;;13.60;93.10;;;;;;5022956;28;20029;-61
2021/10/18 13:20:08;;;;;;;21.92;9.65;;;13.60;93.20;;;;;;5023390;28;20044;-61
2021/10/18 13:22:33;;;;;;;19.50;8.32;;;13.60;93.10;;;;;;5025108;28;20025;-61
2021/10/18 13:24:59;;;;;;;21.42;8.70;;;13.60;93.10;;;;;;5002484;28;20485;-62
2021/10/18 13:27:24;;;;;;;21.08;9.15;;;13.60;93.00;;;;;;5022049;28;20504;-61
2021/10/18 13:29:50;;;;;;;26.75;8.55;;;13.70;93.10;;;;;;5022522;28;20037;-61
2021/10/18 13:32:16;;;;;;;21.90;8.68;;;13.70;93.00;;;;;;5026042;28;20049;-60
2021/10/18 13:34:43;;;;;;;24.25;8.80;;;13.70;93.00;;;;;;5023247;28;20024;-61
2021/10/18 13:37:09;;;;;;;18.73;8.27;;;13.70;92.90;;;;;;5021930;28;20106;-62
2021/10/18 13:39:34;;;;;;;22.45;9.00;;;13.80;92.80;;;;;;5021878;28;20045;-61
2021/10/18 13:42:02;;;;;;;18.38;8.02;;;13.80;92.80;;;;;;5008875;28;20042;-61
2021/10/18 13:44:28;;;;;;;26.38;8.20;;;13.80;92.70;;;;;;5022408;28;20018;-60